Poesville, Texas
Current Conditions -  °F | °C
As of 12:55 AM on Monday 24 Nov 2014 (Local Time) from KCPT Reporting Station
Clear Clear  
Wind Chill: 41°   Ceiling: Unl
Heat Index: 45°   Visibility: 10mi
Dew Point: 37°   Wind: 6mph
Humidity: 76%   Direction: 280°W
Pressure: 29.9"   Gusts: NA
Location:  32.0481°N, 97.6449°W
Report Text: KCPT 240655Z AUTO 28005KT 10SM CLR 07/03 A2990 RMK AO2
Loading
Personal Weather Stations






























Interactive Weather Map New forecast layout! Learn more

10-Day Weather Forecast

Advertisements
Track Severe Weather on mobile